sensor_id;sensor_type;location;lat;lon;timestamp;temperature;humidity
1786;DHT22;890;48.158;11.540;2022-08-07T00:01:14;19.70;98.00
1786;DHT22;890;48.158;11.540;2022-08-07T00:03:40;19.70;97.70
1786;DHT22;890;48.158;11.540;2022-08-07T00:06:06;19.60;97.60
1786;DHT22;890;48.158;11.540;2022-08-07T00:08:31;19.60;98.10
1786;DHT22;890;48.158;11.540;2022-08-07T00:10:57;19.60;97.80
1786;DHT22;890;48.158;11.540;2022-08-07T00:13:23;19.60;97.70
1786;DHT22;890;48.158;11.540;2022-08-07T00:15:50;19.60;97.80
1786;DHT22;890;48.158;11.540;2022-08-07T00:18:17;19.60;97.80
1786;DHT22;890;48.158;11.540;2022-08-07T00:20:43;19.60;97.60
1786;DHT22;890;48.158;11.540;2022-08-07T00:23:09;19.70;97.50
1786;DHT22;890;48.158;11.540;2022-08-07T00:25:35;19.60;97.10
1786;DHT22;890;48.158;11.540;2022-08-07T00:28:01;19.60;96.90
1786;DHT22;890;48.158;11.540;2022-08-07T00:30:27;19.60;96.80
1786;DHT22;890;48.158;11.540;2022-08-07T00:32:53;19.60;96.60
1786;DHT22;890;48.158;11.540;2022-08-07T00:35:19;19.50;96.20
1786;DHT22;890;48.158;11.540;2022-08-07T00:37:45;19.50;96.10
1786;DHT22;890;48.158;11.540;2022-08-07T00:40:11;19.50;95.90
1786;DHT22;890;48.158;11.540;2022-08-07T00:42:37;19.50;95.80
1786;DHT22;890;48.158;11.540;2022-08-07T00:45:04;19.40;95.60
1786;DHT22;890;48.158;11.540;2022-08-07T00:47:30;19.40;95.90
1786;DHT22;890;48.158;11.540;2022-08-07T00:49:56;19.50;95.60
1786;DHT22;890;48.158;11.540;2022-08-07T00:52:21;19.50;95.40
1786;DHT22;890;48.158;11.540;2022-08-07T00:54:47;19.50;95.30
1786;DHT22;890;48.158;11.540;2022-08-07T00:57:13;19.50;95.20
1786;DHT22;890;48.158;11.540;2022-08-07T00:59:40;19.40;95.00
1786;DHT22;890;48.158;11.540;2022-08-07T01:02:06;19.40;95.00
1786;DHT22;890;48.158;11.540;2022-08-07T01:04:32;19.40;94.90
1786;DHT22;890;48.158;11.540;2022-08-07T01:06:58;19.40;94.80
1786;DHT22;890;48.158;11.540;2022-08-07T01:09:24;19.40;94.80
1786;DHT22;890;48.158;11.540;2022-08-07T01:11:50;19.40;94.60
1786;DHT22;890;48.158;11.540;2022-08-07T01:14:18;19.40;94.50
1786;DHT22;890;48.158;11.540;2022-08-07T01:16:44;19.30;94.50
1786;DHT22;890;48.158;11.540;2022-08-07T01:19:11;19.30;94.40
1786;DHT22;890;48.158;11.540;2022-08-07T01:21:36;19.30;94.30
1786;DHT22;890;48.158;11.540;2022-08-07T01:24:03;19.30;94.40
1786;DHT22;890;48.158;11.540;2022-08-07T01:26:29;19.30;94.40
1786;DHT22;890;48.158;11.540;2022-08-07T01:28:55;19.20;94.40
1786;DHT22;890;48.158;11.540;2022-08-07T01:31:21;19.20;94.40
1786;DHT22;890;48.158;11.540;2022-08-07T01:33:52;19.20;94.50
1786;DHT22;890;48.158;11.540;2022-08-07T01:36:18;19.30;94.60
1786;DHT22;890;48.158;11.540;2022-08-07T01:38:44;19.30;94.60
1786;DHT22;890;48.158;11.540;2022-08-07T01:41:10;19.30;94.70
1786;DHT22;890;48.158;11.540;2022-08-07T01:43:36;19.30;95.10
1786;DHT22;890;48.158;11.540;2022-08-07T01:46:02;19.30;95.00
1786;DHT22;890;48.158;11.540;2022-08-07T01:48:28;19.20;95.10
1786;DHT22;890;48.158;11.540;2022-08-07T01:51:02;19.20;95.20
1786;DHT22;890;48.158;11.540;2022-08-07T01:53:29;19.10;95.40
1786;DHT22;890;48.158;11.540;2022-08-07T01:56:02;19.20;95.60
1786;DHT22;890;48.158;11.540;2022-08-07T01:58:32;19.10;96.00
1786;DHT22;890;48.158;11.540;2022-08-07T02:01:03;19.10;95.80
1786;DHT22;890;48.158;11.540;2022-08-07T02:03:33;19.10;95.70
1786;DHT22;890;48.158;11.540;2022-08-07T02:06:05;19.10;95.80
1786;DHT22;890;48.158;11.540;2022-08-07T02:08:33;19.00;95.80
1786;DHT22;890;48.158;11.540;2022-08-07T02:11:03;19.00;95.90
1786;DHT22;890;48.158;11.540;2022-08-07T02:13:31;19.00;95.80
1786;DHT22;890;48.158;11.540;2022-08-07T02:15:59;18.90;95.80
1786;DHT22;890;48.158;11.540;2022-08-07T02:18:28;18.90;95.80
1786;DHT22;890;48.158;11.540;2022-08-07T02:20:56;18.90;95.70
1786;DHT22;890;48.158;11.540;2022-08-07T02:23:24;18.90;95.70
1786;DHT22;890;48.158;11.540;2022-08-07T02:25:52;18.90;95.80
1786;DHT22;890;48.158;11.540;2022-08-07T02:28:20;18.90;95.80
1786;DHT22;890;48.158;11.540;2022-08-07T02:30:47;18.80;95.80
1786;DHT22;890;48.158;11.540;2022-08-07T02:33:13;18.80;95.80
1786;DHT22;890;48.158;11.540;2022-08-07T02:35:40;18.70;95.90
1786;DHT22;890;48.158;11.540;2022-08-07T02:38:07;18.70;96.00
1786;DHT22;890;48.158;11.540;2022-08-07T02:40:35;18.60;96.10
1786;DHT22;890;48.158;11.540;2022-08-07T02:43:02;18.60;96.30
1786;DHT22;890;48.158;11.540;2022-08-07T02:45:29;18.60;96.40
1786;DHT22;890;48.158;11.540;2022-08-07T02:47:56;18.50;96.60
1786;DHT22;890;48.158;11.540;2022-08-07T02:50:22;18.50;97.00
1786;DHT22;890;48.158;11.540;2022-08-07T02:53:08;18.50;97.20
1786;DHT22;890;48.158;11.540;2022-08-07T02:55:37;18.40;97.40
1786;DHT22;890;48.158;11.540;2022-08-07T02:58:06;18.40;97.60
1786;DHT22;890;48.158;11.540;2022-08-07T03:00:34;18.40;97.80
1786;DHT22;890;48.158;11.540;2022-08-07T03:03:02;18.40;97.90
1786;DHT22;890;48.158;11.540;2022-08-07T03:05:29;18.40;98.00
1786;DHT22;890;48.158;11.540;2022-08-07T03:07:55;18.40;98.10
1786;DHT22;890;48.158;11.540;2022-08-07T03:10:21;18.40;98.00
1786;DHT22;890;48.158;11.540;2022-08-07T03:12:48;18.40;98.00
1786;DHT22;890;48.158;11.540;2022-08-07T03:15:15;18.30;98.00
1786;DHT22;890;48.158;11.540;2022-08-07T03:17:41;18.30;98.00
1786;DHT22;890;48.158;11.540;2022-08-07T03:20:08;18.30;98.20
1786;DHT22;890;48.158;11.540;2022-08-07T03:22:35;18.20;98.30
1786;DHT22;890;48.158;11.540;2022-08-07T03:25:01;18.20;98.30
1786;DHT22;890;48.158;11.540;2022-08-07T03:27:27;18.20;98.30
1786;DHT22;890;48.158;11.540;2022-08-07T03:29:54;18.20;98.30
1786;DHT22;890;48.158;11.540;2022-08-07T03:32:26;18.20;98.30
1786;DHT22;890;48.158;11.540;2022-08-07T03:34:57;18.10;98.40
1786;DHT22;890;48.158;11.540;2022-08-07T03:37:24;18.10;98.50
1786;DHT22;890;48.158;11.540;2022-08-07T03:39:52;18.10;98.60
1786;DHT22;890;48.158;11.540;2022-08-07T03:42:19;18.10;98.70
1786;DHT22;890;48.158;11.540;2022-08-07T03:44:45;18.10;98.80
1786;DHT22;890;48.158;11.540;2022-08-07T03:47:12;18.10;98.90
1786;DHT22;890;48.158;11.540;2022-08-07T03:49:38;18.20;99.00
1786;DHT22;890;48.158;11.540;2022-08-07T03:52:05;18.20;98.80
1786;DHT22;890;48.158;11.540;2022-08-07T03:54:33;18.20;98.60
1786;DHT22;890;48.158;11.540;2022-08-07T03:57:00;18.30;98.60
1786;DHT22;890;48.158;11.540;2022-08-07T03:59:27;18.20;98.60
1786;DHT22;890;48.158;11.540;2022-08-07T04:01:54;18.30;98.50
1786;DHT22;890;48.158;11.540;2022-08-07T04:04:20;18.40;98.40
1786;DHT22;890;48.158;11.540;2022-08-07T04:06:47;18.40;98.20
1786;DHT22;890;48.158;11.540;2022-08-07T04:09:13;18.30;98.10
1786;DHT22;890;48.158;11.540;2022-08-07T04:11:40;18.30;98.10
1786;DHT22;890;48.158;11.540;2022-08-07T04:14:06;18.20;98.20
1786;DHT22;890;48.158;11.540;2022-08-07T04:16:32;18.30;98.10
1786;DHT22;890;48.158;11.540;2022-08-07T04:18:58;18.20;98.00
1786;DHT22;890;48.158;11.540;2022-08-07T04:21:24;18.20;98.00
1786;DHT22;890;48.158;11.540;2022-08-07T04:23:50;18.20;98.00
1786;DHT22;890;48.158;11.540;2022-08-07T04:26:16;18.20;97.90
1786;DHT22;890;48.158;11.540;2022-08-07T04:28:42;18.20;97.70
1786;DHT22;890;48.158;11.540;2022-08-07T04:31:08;18.20;97.70
1786;DHT22;890;48.158;11.540;2022-08-07T04:33:39;18.10;97.70
1786;DHT22;890;48.158;11.540;2022-08-07T04:36:06;18.10;97.60
1786;DHT22;890;48.158;11.540;2022-08-07T04:38:35;18.10;97.60
1786;DHT22;890;48.158;11.540;2022-08-07T04:41:01;18.20;97.60
1786;DHT22;890;48.158;11.540;2022-08-07T04:43:33;18.20;97.60
1786;DHT22;890;48.158;11.540;2022-08-07T04:54:21;18.10;97.60
1786;DHT22;890;48.158;11.540;2022-08-07T04:56:56;18.10;97.60
1786;DHT22;890;48.158;11.540;2022-08-07T04:59:31;18.20;97.70
1786;DHT22;890;48.158;11.540;2022-08-07T05:05:12;18.20;97.50
1786;DHT22;890;48.158;11.540;2022-08-07T05:07:59;18.10;97.40
1786;DHT22;890;48.158;11.540;2022-08-07T05:13:05;18.30;97.40
1786;DHT22;890;48.158;11.540;2022-08-07T05:15:36;18.20;97.30
1786;DHT22;890;48.158;11.540;2022-08-07T05:18:06;18.20;97.10
1786;DHT22;890;48.158;11.540;2022-08-07T05:20:40;18.20;97.10
1786;DHT22;890;48.158;11.540;2022-08-07T05:23:18;18.20;96.90
1786;DHT22;890;48.158;11.540;2022-08-07T05:25:45;18.20;96.60
1786;DHT22;890;48.158;11.540;2022-08-07T05:28:12;18.30;96.50
1786;DHT22;890;48.158;11.540;2022-08-07T05:30:40;18.40;96.30
1786;DHT22;890;48.158;11.540;2022-08-07T05:33:08;18.40;96.20
1786;DHT22;890;48.158;11.540;2022-08-07T05:35:35;18.50;96.00
1786;DHT22;890;48.158;11.540;2022-08-07T05:38:03;18.50;95.60
1786;DHT22;890;48.158;11.540;2022-08-07T05:40:31;18.50;95.50
1786;DHT22;890;48.158;11.540;2022-08-07T05:42:58;18.50;95.10
1786;DHT22;890;48.158;11.540;2022-08-07T05:45:24;18.50;95.20
1786;DHT22;890;48.158;11.540;2022-08-07T05:47:52;18.60;94.90
1786;DHT22;890;48.158;11.540;2022-08-07T05:50:18;18.50;94.40
1786;DHT22;890;48.158;11.540;2022-08-07T05:52:44;18.50;94.30
1786;DHT22;890;48.158;11.540;2022-08-07T05:55:09;18.50;94.40
1786;DHT22;890;48.158;11.540;2022-08-07T05:57:36;18.60;94.30
1786;DHT22;890;48.158;11.540;2022-08-07T06:00:03;18.70;94.00
1786;DHT22;890;48.158;11.540;2022-08-07T06:02:32;18.80;93.70
1786;DHT22;890;48.158;11.540;2022-08-07T06:05:06;18.90;93.70
1786;DHT22;890;48.158;11.540;2022-08-07T06:07:33;19.00;93.50
1786;DHT22;890;48.158;11.540;2022-08-07T06:10:00;19.20;93.40
1786;DHT22;890;48.158;11.540;2022-08-07T06:12:26;19.40;92.90
1786;DHT22;890;48.158;11.540;2022-08-07T06:14:52;19.60;92.40
1786;DHT22;890;48.158;11.540;2022-08-07T06:17:20;19.70;91.60
1786;DHT22;890;48.158;11.540;2022-08-07T06:19:47;19.80;91.00
1786;DHT22;890;48.158;11.540;2022-08-07T06:22:15;19.90;91.10
1786;DHT22;890;48.158;11.540;2022-08-07T06:24:42;20.00;90.60
1786;DHT22;890;48.158;11.540;2022-08-07T06:27:08;20.20;90.40
1786;DHT22;890;48.158;11.540;2022-08-07T06:29:33;20.20;89.00
1786;DHT22;890;48.158;11.540;2022-08-07T06:31:59;20.40;88.00
1786;DHT22;890;48.158;11.540;2022-08-07T06:34:26;20.30;87.10
1786;DHT22;890;48.158;11.540;2022-08-07T06:36:52;20.40;86.80
1786;DHT22;890;48.158;11.540;2022-08-07T06:39:19;20.40;87.30
1786;DHT22;890;48.158;11.540;2022-08-07T06:41:52;20.40;85.80
1786;DHT22;890;48.158;11.540;2022-08-07T06:44:20;20.30;84.50
1786;DHT22;890;48.158;11.540;2022-08-07T06:46:47;20.40;84.20
1786;DHT22;890;48.158;11.540;2022-08-07T06:49:13;20.30;83.50
1786;DHT22;890;48.158;11.540;2022-08-07T06:51:39;20.30;83.00
1786;DHT22;890;48.158;11.540;2022-08-07T06:54:08;20.30;82.40
1786;DHT22;890;48.158;11.540;2022-08-07T06:56:35;20.20;81.70
1786;DHT22;890;48.158;11.540;2022-08-07T06:59:11;20.20;81.80
1786;DHT22;890;48.158;11.540;2022-08-07T07:01:38;20.20;81.50
1786;DHT22;890;48.158;11.540;2022-08-07T07:04:06;20.20;81.30
1786;DHT22;890;48.158;11.540;2022-08-07T07:06:32;20.20;81.30
1786;DHT22;890;48.158;11.540;2022-08-07T07:09:20;20.40;80.60
1786;DHT22;890;48.158;11.540;2022-08-07T07:17:56;20.80;78.60
1786;DHT22;890;48.158;11.540;2022-08-07T07:20:26;21.10;78.20
1786;DHT22;890;48.158;11.540;2022-08-07T07:22:55;21.20;77.70
1786;DHT22;890;48.158;11.540;2022-08-07T07:25:21;21.40;77.10
1786;DHT22;890;48.158;11.540;2022-08-07T07:30:39;21.50;75.80
1786;DHT22;890;48.158;11.540;2022-08-07T07:33:10;21.90;76.00
1786;DHT22;890;48.158;11.540;2022-08-07T07:35:38;22.20;74.80
1786;DHT22;890;48.158;11.540;2022-08-07T07:38:05;22.30;74.50
1786;DHT22;890;48.158;11.540;2022-08-07T07:40:32;22.40;73.30
1786;DHT22;890;48.158;11.540;2022-08-07T07:42:59;22.60;72.70
1786;DHT22;890;48.158;11.540;2022-08-07T07:45:28;22.60;71.80
1786;DHT22;890;48.158;11.540;2022-08-07T07:47:56;22.60;71.30
1786;DHT22;890;48.158;11.540;2022-08-07T07:50:23;22.70;70.70
1786;DHT22;890;48.158;11.540;2022-08-07T07:52:50;22.80;70.10
1786;DHT22;890;48.158;11.540;2022-08-07T07:55:18;22.90;69.70
1786;DHT22;890;48.158;11.540;2022-08-07T07:57:46;22.80;68.00
1786;DHT22;890;48.158;11.540;2022-08-07T08:00:14;22.60;67.90
1786;DHT22;890;48.158;11.540;2022-08-07T08:02:40;22.50;67.90
1786;DHT22;890;48.158;11.540;2022-08-07T08:05:09;22.40;67.90
1786;DHT22;890;48.158;11.540;2022-08-07T08:07:37;22.20;68.10
1786;DHT22;890;48.158;11.540;2022-08-07T08:10:05;22.00;66.90
1786;DHT22;890;48.158;11.540;2022-08-07T08:12:32;22.00;67.00
1786;DHT22;890;48.158;11.540;2022-08-07T08:15:00;22.10;66.60
1786;DHT22;890;48.158;11.540;2022-08-07T08:17:27;22.30;66.40
1786;DHT22;890;48.158;11.540;2022-08-07T08:19:58;22.50;65.80
1786;DHT22;890;48.158;11.540;2022-08-07T08:22:25;22.60;64.90
1786;DHT22;890;48.158;11.540;2022-08-07T08:25:11;22.70;64.30
1786;DHT22;890;48.158;11.540;2022-08-07T08:27:56;22.70;64.40
1786;DHT22;890;48.158;11.540;2022-08-07T08:30:23;22.70;64.40
1786;DHT22;890;48.158;11.540;2022-08-07T08:32:52;22.80;64.00
1786;DHT22;890;48.158;11.540;2022-08-07T08:35:21;22.80;63.60
1786;DHT22;890;48.158;11.540;2022-08-07T08:37:49;22.80;63.40
1786;DHT22;890;48.158;11.540;2022-08-07T08:40:23;23.00;63.40
1786;DHT22;890;48.158;11.540;2022-08-07T08:43:27;22.80;62.40
1786;DHT22;890;48.158;11.540;2022-08-07T08:48:45;22.90;62.20
1786;DHT22;890;48.158;11.540;2022-08-07T08:51:25;23.20;61.90
1786;DHT22;890;48.158;11.540;2022-08-07T08:53:58;23.50;60.90
1786;DHT22;890;48.158;11.540;2022-08-07T08:56:35;23.70;60.20
1786;DHT22;890;48.158;11.540;2022-08-07T09:08:03;23.90;59.10
1786;DHT22;890;48.158;11.540;2022-08-07T09:10:56;24.00;59.10
1786;DHT22;890;48.158;11.540;2022-08-07T09:13:57;24.30;58.50
1786;DHT22;890;48.158;11.540;2022-08-07T09:17:14;24.40;58.30
1786;DHT22;890;48.158;11.540;2022-08-07T09:19:56;24.40;57.90
1786;DHT22;890;48.158;11.540;2022-08-07T09:22:53;24.50;57.80
1786;DHT22;890;48.158;11.540;2022-08-07T09:25:46;24.40;57.30
1786;DHT22;890;48.158;11.540;2022-08-07T09:28:39;24.40;56.90
1786;DHT22;890;48.158;11.540;2022-08-07T09:34:23;24.20;57.10
1786;DHT22;890;48.158;11.540;2022-08-07T09:43:02;24.10;56.90
1786;DHT22;890;48.158;11.540;2022-08-07T09:48:33;24.10;56.90
1786;DHT22;890;48.158;11.540;2022-08-07T09:53:36;24.70;57.50
1786;DHT22;890;48.158;11.540;2022-08-07T09:56:26;25.00;57.20
1786;DHT22;890;48.158;11.540;2022-08-07T10:15:45;26.70;55.50
1786;DHT22;890;48.158;11.540;2022-08-07T10:21:04;27.70;52.80
1786;DHT22;890;48.158;11.540;2022-08-07T10:23:42;28.00;51.30
1786;DHT22;890;48.158;11.540;2022-08-07T10:26:31;27.90;50.30
1786;DHT22;890;48.158;11.540;2022-08-07T10:29:23;28.00;50.00
1786;DHT22;890;48.158;11.540;2022-08-07T10:32:52;28.20;50.70
1786;DHT22;890;48.158;11.540;2022-08-07T10:37:40;29.60;48.60
1786;DHT22;890;48.158;11.540;2022-08-07T10:40:16;29.70;46.90
1786;DHT22;890;48.158;11.540;2022-08-07T10:45:26;29.90;46.80
1786;DHT22;890;48.158;11.540;2022-08-07T10:48:11;29.60;46.00
1786;DHT22;890;48.158;11.540;2022-08-07T10:51:04;29.80;46.10
1786;DHT22;890;48.158;11.540;2022-08-07T10:53:46;30.10;46.60
1786;DHT22;890;48.158;11.540;2022-08-07T11:11:06;30.60;43.40
1786;DHT22;890;48.158;11.540;2022-08-07T11:13:36;30.50;44.30
1786;DHT22;890;48.158;11.540;2022-08-07T11:16:10;30.50;44.10
1786;DHT22;890;48.158;11.540;2022-08-07T11:18:49;30.80;44.50
1786;DHT22;890;48.158;11.540;2022-08-07T11:24:05;31.60;43.60
1786;DHT22;890;48.158;11.540;2022-08-07T11:26:44;31.90;42.60
1786;DHT22;890;48.158;11.540;2022-08-07T11:32:10;33.10;41.30
1786;DHT22;890;48.158;11.540;2022-08-07T11:34:52;33.50;41.60
1786;DHT22;890;48.158;11.540;2022-08-07T11:40:28;34.00;39.50
1786;DHT22;890;48.158;11.540;2022-08-07T11:57:40;33.70;38.00
1786;DHT22;890;48.158;11.540;2022-08-07T12:00:13;33.70;37.80
1786;DHT22;890;48.158;11.540;2022-08-07T12:06:27;33.70;36.80
1786;DHT22;890;48.158;11.540;2022-08-07T12:08:32;33.70;37.60
1786;DHT22;890;48.158;11.540;2022-08-07T12:11:06;34.00;37.60
1786;DHT22;890;48.158;11.540;2022-08-07T12:16:21;33.70;37.10
1786;DHT22;890;48.158;11.540;2022-08-07T12:19:16;33.50;37.00
1786;DHT22;890;48.158;11.540;2022-08-07T12:24:50;33.60;37.10
1786;DHT22;890;48.158;11.540;2022-08-07T12:27:39;33.60;36.50
1786;DHT22;890;48.158;11.540;2022-08-07T12:30:08;33.60;37.20
1786;DHT22;890;48.158;11.540;2022-08-07T12:32:47;33.80;36.90
1786;DHT22;890;48.158;11.540;2022-08-07T12:35:15;33.70;36.30
1786;DHT22;890;48.158;11.540;2022-08-07T12:37:46;33.30;36.40
1786;DHT22;890;48.158;11.540;2022-08-07T12:40:12;32.90;37.00
1786;DHT22;890;48.158;11.540;2022-08-07T12:42:41;32.60;37.00
1786;DHT22;890;48.158;11.540;2022-08-07T12:45:11;32.00;36.90
1786;DHT22;890;48.158;11.540;2022-08-07T12:47:57;31.20;37.60
1786;DHT22;890;48.158;11.540;2022-08-07T12:50:49;30.20;39.00
1786;DHT22;890;48.158;11.540;2022-08-07T12:53:18;29.50;40.10
1786;DHT22;890;48.158;11.540;2022-08-07T12:56:09;28.90;40.80
1786;DHT22;890;48.158;11.540;2022-08-07T12:58:39;28.40;42.00
1786;DHT22;890;48.158;11.540;2022-08-07T13:04:25;27.90;42.50
1786;DHT22;890;48.158;11.540;2022-08-07T13:16:01;26.70;44.10
1786;DHT22;890;48.158;11.540;2022-08-07T13:23:54;26.50;44.70
1786;DHT22;890;48.158;11.540;2022-08-07T13:29:19;26.30;45.20
1786;DHT22;890;48.158;11.540;2022-08-07T13:31:49;26.30;45.50
1786;DHT22;890;48.158;11.540;2022-08-07T13:37:19;26.50;45.70
1786;DHT22;890;48.158;11.540;2022-08-07T13:39:54;26.60;45.40
1786;DHT22;890;48.158;11.540;2022-08-07T13:42:25;26.70;45.50
1786;DHT22;890;48.158;11.540;2022-08-07T13:44:53;26.60;45.20
1786;DHT22;890;48.158;11.540;2022-08-07T13:47:20;26.60;45.10
1786;DHT22;890;48.158;11.540;2022-08-07T13:49:47;26.70;45.30
1786;DHT22;890;48.158;11.540;2022-08-07T13:52:14;26.70;44.80
1786;DHT22;890;48.158;11.540;2022-08-07T13:54:42;26.60;44.80
1786;DHT22;890;48.158;11.540;2022-08-07T13:57:12;26.40;45.10
1786;DHT22;890;48.158;11.540;2022-08-07T13:59:43;26.40;45.00
1786;DHT22;890;48.158;11.540;2022-08-07T14:02:12;26.40;44.90
1786;DHT22;890;48.158;11.540;2022-08-07T14:07:08;26.40;45.50
1786;DHT22;890;48.158;11.540;2022-08-07T14:09:38;26.40;45.10
1786;DHT22;890;48.158;11.540;2022-08-07T14:12:07;26.50;45.30
1786;DHT22;890;48.158;11.540;2022-08-07T14:14:47;26.40;45.50
1786;DHT22;890;48.158;11.540;2022-08-07T14:17:16;26.40;45.00
1786;DHT22;890;48.158;11.540;2022-08-07T14:19:47;26.50;45.10
1786;DHT22;890;48.158;11.540;2022-08-07T14:22:23;26.40;45.20
1786;DHT22;890;48.158;11.540;2022-08-07T14:24:56;26.50;45.00
1786;DHT22;890;48.158;11.540;2022-08-07T14:27:37;26.50;44.90
1786;DHT22;890;48.158;11.540;2022-08-07T14:30:07;26.40;44.90
1786;DHT22;890;48.158;11.540;2022-08-07T14:32:44;26.50;44.80
1786;DHT22;890;48.158;11.540;2022-08-07T14:35:23;26.40;45.00
1786;DHT22;890;48.158;11.540;2022-08-07T14:37:50;26.40;44.60
1786;DHT22;890;48.158;11.540;2022-08-07T14:40:20;26.50;44.80
1786;DHT22;890;48.158;11.540;2022-08-07T14:42:59;26.50;44.60
1786;DHT22;890;48.158;11.540;2022-08-07T14:45:45;26.50;44.60
1786;DHT22;890;48.158;11.540;2022-08-07T14:48:13;26.30;44.40
1786;DHT22;890;48.158;11.540;2022-08-07T14:50:44;26.40;44.80
1786;DHT22;890;48.158;11.540;2022-08-07T14:53:11;26.40;44.70
1786;DHT22;890;48.158;11.540;2022-08-07T14:55:38;26.40;44.70
1786;DHT22;890;48.158;11.540;2022-08-07T14:58:06;26.30;44.50
1786;DHT22;890;48.158;11.540;2022-08-07T15:00:34;26.20;44.60
1786;DHT22;890;48.158;11.540;2022-08-07T15:03:04;26.10;45.00
1786;DHT22;890;48.158;11.540;2022-08-07T15:05:31;26.10;45.00
1786;DHT22;890;48.158;11.540;2022-08-07T15:07:58;26.10;45.00
1786;DHT22;890;48.158;11.540;2022-08-07T15:10:28;26.10;45.10
1786;DHT22;890;48.158;11.540;2022-08-07T15:13:00;26.20;45.10
1786;DHT22;890;48.158;11.540;2022-08-07T15:15:36;26.20;45.20
1786;DHT22;890;48.158;11.540;2022-08-07T15:18:10;26.10;45.30
1786;DHT22;890;48.158;11.540;2022-08-07T15:20:37;26.10;45.50
1786;DHT22;890;48.158;11.540;2022-08-07T15:23:27;26.10;45.80
1786;DHT22;890;48.158;11.540;2022-08-07T15:25:55;25.90;45.40
1786;DHT22;890;48.158;11.540;2022-08-07T15:28:23;25.90;45.70
1786;DHT22;890;48.158;11.540;2022-08-07T15:30:53;25.80;46.00
1786;DHT22;890;48.158;11.540;2022-08-07T15:33:20;25.80;46.30
1786;DHT22;890;48.158;11.540;2022-08-07T15:35:52;25.80;46.30
1786;DHT22;890;48.158;11.540;2022-08-07T15:38:27;25.80;46.30
1786;DHT22;890;48.158;11.540;2022-08-07T15:40:54;25.80;46.20
1786;DHT22;890;48.158;11.540;2022-08-07T15:43:26;25.70;46.30
1786;DHT22;890;48.158;11.540;2022-08-07T15:45:55;25.60;46.30
1786;DHT22;890;48.158;11.540;2022-08-07T15:48:28;25.60;46.60
1786;DHT22;890;48.158;11.540;2022-08-07T15:50:58;25.70;46.50
1786;DHT22;890;48.158;11.540;2022-08-07T15:53:33;25.70;46.50
1786;DHT22;890;48.158;11.540;2022-08-07T15:56:04;25.70;46.90
1786;DHT22;890;48.158;11.540;2022-08-07T16:01:32;25.50;46.80
1786;DHT22;890;48.158;11.540;2022-08-07T16:04:03;25.40;46.90
1786;DHT22;890;48.158;11.540;2022-08-07T16:06:35;25.60;47.10
1786;DHT22;890;48.158;11.540;2022-08-07T16:09:07;25.60;47.00
1786;DHT22;890;48.158;11.540;2022-08-07T16:17:46;25.20;47.40
1786;DHT22;890;48.158;11.540;2022-08-07T16:20:28;25.20;47.70
1786;DHT22;890;48.158;11.540;2022-08-07T16:23:20;25.00;48.00
1786;DHT22;890;48.158;11.540;2022-08-07T16:26:06;24.90;48.10
1786;DHT22;890;48.158;11.540;2022-08-07T16:29:28;24.90;48.40
1786;DHT22;890;48.158;11.540;2022-08-07T16:32:01;24.90;48.70
1786;DHT22;890;48.158;11.540;2022-08-07T16:34:43;24.90;48.70
1786;DHT22;890;48.158;11.540;2022-08-07T16:43:49;24.70;49.10
1786;DHT22;890;48.158;11.540;2022-08-07T16:54:14;24.70;49.80
1786;DHT22;890;48.158;11.540;2022-08-07T17:01:58;24.60;50.00
1786;DHT22;890;48.158;11.540;2022-08-07T17:07:25;24.40;50.40
1786;DHT22;890;48.158;11.540;2022-08-07T17:10:05;24.30;50.40
1786;DHT22;890;48.158;11.540;2022-08-07T17:12:49;24.30;50.50
1786;DHT22;890;48.158;11.540;2022-08-07T17:15:28;24.20;50.70
1786;DHT22;890;48.158;11.540;2022-08-07T17:18:27;24.20;50.80
1786;DHT22;890;48.158;11.540;2022-08-07T17:20:47;24.10;51.00
1786;DHT22;890;48.158;11.540;2022-08-07T17:25:49;24.10;51.20
1786;DHT22;890;48.158;11.540;2022-08-07T17:28:32;24.00;51.40
1786;DHT22;890;48.158;11.540;2022-08-07T17:31:13;24.10;51.30
1786;DHT22;890;48.158;11.540;2022-08-07T17:33:50;24.30;51.50
1786;DHT22;890;48.158;11.540;2022-08-07T17:36:26;24.20;51.20
1786;DHT22;890;48.158;11.540;2022-08-07T17:39:07;24.10;51.30
1786;DHT22;890;48.158;11.540;2022-08-07T17:41:45;24.10;51.50
1786;DHT22;890;48.158;11.540;2022-08-07T17:44:31;24.00;51.60
1786;DHT22;890;48.158;11.540;2022-08-07T17:47:03;23.90;51.90
1786;DHT22;890;48.158;11.540;2022-08-07T17:49:38;23.90;52.10
1786;DHT22;890;48.158;11.540;2022-08-07T17:55:11;23.80;52.30
1786;DHT22;890;48.158;11.540;2022-08-07T17:57:49;23.80;52.50
1786;DHT22;890;48.158;11.540;2022-08-07T18:00:18;23.60;52.60
1786;DHT22;890;48.158;11.540;2022-08-07T18:02:54;23.60;52.70
1786;DHT22;890;48.158;11.540;2022-08-07T18:08:20;23.50;53.10
1786;DHT22;890;48.158;11.540;2022-08-07T18:11:12;23.40;52.90
1786;DHT22;890;48.158;11.540;2022-08-07T18:14:03;23.50;53.30
1786;DHT22;890;48.158;11.540;2022-08-07T18:16:42;23.40;53.30
1786;DHT22;890;48.158;11.540;2022-08-07T18:21:48;23.30;53.50
1786;DHT22;890;48.158;11.540;2022-08-07T18:24:47;23.30;54.00
1786;DHT22;890;48.158;11.540;2022-08-07T18:30:07;23.10;54.10
1786;DHT22;890;48.158;11.540;2022-08-07T18:35:29;23.00;54.50
1786;DHT22;890;48.158;11.540;2022-08-07T18:48:25;22.80;55.40
1786;DHT22;890;48.158;11.540;2022-08-07T18:56:39;22.70;55.50
1786;DHT22;890;48.158;11.540;2022-08-07T19:02:31;22.60;55.80
1786;DHT22;890;48.158;11.540;2022-08-07T19:05:23;22.60;56.00
1786;DHT22;890;48.158;11.540;2022-08-07T19:10:22;22.50;56.20
1786;DHT22;890;48.158;11.540;2022-08-07T19:12:53;22.50;56.50
1786;DHT22;890;48.158;11.540;2022-08-07T19:15:44;22.50;56.60
1786;DHT22;890;48.158;11.540;2022-08-07T19:18:18;22.40;56.70
1786;DHT22;890;48.158;11.540;2022-08-07T19:23:32;22.40;56.90
1786;DHT22;890;48.158;11.540;2022-08-07T19:26:03;22.50;57.20
1786;DHT22;890;48.158;11.540;2022-08-07T19:28:36;22.50;57.10
1786;DHT22;890;48.158;11.540;2022-08-07T19:31:29;22.50;57.20
1786;DHT22;890;48.158;11.540;2022-08-07T19:33:59;22.40;57.20
1786;DHT22;890;48.158;11.540;2022-08-07T19:36:28;22.50;57.50
1786;DHT22;890;48.158;11.540;2022-08-07T19:38:58;22.40;57.30
1786;DHT22;890;48.158;11.540;2022-08-07T19:41:30;22.40;57.50
1786;DHT22;890;48.158;11.540;2022-08-07T19:44:00;22.40;57.50
1786;DHT22;890;48.158;11.540;2022-08-07T19:46:32;22.40;57.70
1786;DHT22;890;48.158;11.540;2022-08-07T19:49:04;22.30;57.80
1786;DHT22;890;48.158;11.540;2022-08-07T19:51:32;22.30;57.90
1786;DHT22;890;48.158;11.540;2022-08-07T19:53:58;22.30;58.00
1786;DHT22;890;48.158;11.540;2022-08-07T19:56:30;22.30;58.30
1786;DHT22;890;48.158;11.540;2022-08-07T19:58:59;22.20;58.30
1786;DHT22;890;48.158;11.540;2022-08-07T20:01:26;22.10;58.50
1786;DHT22;890;48.158;11.540;2022-08-07T20:03:54;22.20;58.70
1786;DHT22;890;48.158;11.540;2022-08-07T20:06:22;22.20;58.90
1786;DHT22;890;48.158;11.540;2022-08-07T20:08:54;22.10;59.10
1786;DHT22;890;48.158;11.540;2022-08-07T20:11:27;22.00;59.20